createdAt,value
2023-04-19T00:00:01.652Z,92177.84
2023-04-19T00:02:47.719Z,92181.03
2023-04-19T00:05:35.638Z,92172.50
2023-04-19T00:08:21.615Z,92172.09
2023-04-19T00:11:07.627Z,92172.28
2023-04-19T00:13:53.817Z,92177.09
2023-04-19T00:16:39.696Z,92172.97
2023-04-19T00:19:26.061Z,92168.59
2023-04-19T00:22:12.027Z,92169.56
2023-04-19T00:24:57.934Z,92174.47
2023-04-19T00:27:43.845Z,92174.25
2023-04-19T00:30:29.701Z,92169.56
2023-04-19T00:33:15.547Z,92173.25
2023-04-19T00:36:01.458Z,92171.31
2023-04-19T00:38:47.356Z,92180.09
2023-04-19T00:41:33.345Z,92172.28
2023-04-19T00:44:19.203Z,92173.78
2023-04-19T00:47:05.008Z,92180.44
2023-04-19T00:49:50.919Z,92175.34
2023-04-19T00:52:36.833Z,92176.88
2023-04-19T00:55:22.620Z,92171.41
2023-04-19T00:58:08.710Z,92170.31
2023-04-19T01:00:54.546Z,92172.81
2023-04-19T01:03:40.643Z,92164.44
2023-04-19T01:06:26.950Z,92169.34
2023-04-19T01:09:12.616Z,92166.88
2023-04-19T01:11:58.537Z,92161.84
2023-04-19T01:14:44.406Z,92168.16
2023-04-19T01:17:30.327Z,92169.13
2023-04-19T01:20:16.286Z,92175.88
2023-04-19T01:23:02.125Z,92166.75
2023-04-19T01:25:48.238Z,92167.28
2023-04-19T01:28:34.454Z,92173.50
2023-04-19T01:31:20.382Z,92160.31
2023-04-19T01:34:06.754Z,92162.16
2023-04-19T01:36:52.712Z,92162.13
2023-04-19T01:39:38.775Z,92161.03
2023-04-19T01:42:24.751Z,92157.66
2023-04-19T01:45:10.542Z,92160.38
2023-04-19T01:47:56.594Z,92155.91
2023-04-19T01:50:42.637Z,92148.22
2023-04-19T01:53:28.530Z,92152.34
2023-04-19T01:56:14.585Z,92157.25
2023-04-19T01:59:00.476Z,92163.91
2023-04-19T02:01:46.295Z,92161.75
2023-04-19T02:04:32.292Z,92157.63
2023-04-19T02:07:18.175Z,92155.75
2023-04-19T02:10:04.104Z,92158.81
2023-04-19T02:12:49.931Z,92159.25
2023-04-19T02:15:35.810Z,92157.50
2023-04-19T02:18:21.714Z,92163.25
2023-04-19T02:21:07.597Z,92162.94
2023-04-19T02:23:53.558Z,92158.19
2023-04-19T02:26:39.687Z,92164.34
2023-04-19T02:29:25.476Z,92156.72
2023-04-19T02:32:11.474Z,92148.72
2023-04-19T02:34:57.308Z,92159.34
2023-04-19T02:37:43.227Z,92156.19
2023-04-19T02:40:29.101Z,92156.63
2023-04-19T02:43:14.959Z,92161.19
2023-04-19T02:46:00.813Z,92161.19
2023-04-19T02:48:46.833Z,92157.59
2023-04-19T02:51:32.784Z,92163.06
2023-04-19T02:54:18.661Z,92169.59
2023-04-19T02:57:04.530Z,92167.97
2023-04-19T02:59:50.370Z,92167.94
2023-04-19T03:02:36.381Z,92161.91
2023-04-19T03:05:22.358Z,92174.38
2023-04-19T03:08:08.296Z,92163.56
2023-04-19T03:10:54.106Z,92163.88
2023-04-19T03:13:39.953Z,92168.84
2023-04-19T03:16:25.942Z,92164.78
2023-04-19T03:19:11.896Z,92158.63
2023-04-19T03:21:57.694Z,92151.75
2023-04-19T03:24:43.614Z,92156.09
2023-04-19T03:27:29.488Z,92152.06
2023-04-19T03:30:15.556Z,92154.88
2023-04-19T03:33:01.386Z,92159.22
2023-04-19T03:35:47.256Z,92164.34
2023-04-19T03:38:33.141Z,92158.47
2023-04-19T03:41:19.113Z,92161.44
2023-04-19T03:44:05.106Z,92162.59
2023-04-19T03:46:52.959Z,92167.06
2023-04-19T03:49:38.686Z,92157.53
2023-04-19T03:52:24.583Z,92163.03
2023-04-19T03:55:10.480Z,92164.91
2023-04-19T03:57:56.387Z,92159.88
2023-04-19T04:00:42.363Z,92158.47
2023-04-19T04:03:28.366Z,92154.78
2023-04-19T04:06:14.606Z,92156.75
2023-04-19T04:09:00.594Z,92150.09
2023-04-19T04:11:46.586Z,92150.00
2023-04-19T04:14:32.474Z,92140.63
2023-04-19T04:17:18.324Z,92148.25
2023-04-19T04:20:04.278Z,92146.94
2023-04-19T04:22:50.220Z,92147.59
2023-04-19T04:25:36.057Z,92152.50
2023-04-19T04:28:21.975Z,92156.56
2023-04-19T04:31:07.920Z,92145.38
2023-04-19T04:33:53.832Z,92143.13
2023-04-19T04:36:39.818Z,92143.38
2023-04-19T04:39:25.697Z,92150.88
2023-04-19T04:42:11.543Z,92155.84
2023-04-19T04:44:57.528Z,92159.34
2023-04-19T04:47:43.435Z,92152.69
2023-04-19T04:50:29.343Z,92149.00
2023-04-19T04:53:15.446Z,92159.75
2023-04-19T04:56:01.405Z,92156.63
2023-04-19T04:58:47.291Z,92160.78
2023-04-19T05:01:33.192Z,92164.69
2023-04-19T05:04:19.188Z,92164.00
2023-04-19T05:07:05.431Z,92167.53
2023-04-19T05:09:51.311Z,92170.03
2023-04-19T05:12:37.292Z,92166.09
2023-04-19T05:15:23.240Z,92166.88
2023-04-19T05:18:09.126Z,92152.06
2023-04-19T05:20:55.014Z,92159.66
2023-04-19T05:23:40.980Z,92164.56
2023-04-19T05:26:26.936Z,92158.13
2023-04-19T05:29:12.856Z,92158.47
2023-04-19T05:31:58.795Z,92162.81
2023-04-19T05:34:44.684Z,92155.75
2023-04-19T05:37:30.549Z,92165.44
2023-04-19T05:40:16.450Z,92160.22
2023-04-19T05:43:02.405Z,92165.09
2023-04-19T05:45:48.440Z,92168.03
2023-04-19T05:48:34.586Z,92160.03
2023-04-19T05:51:20.550Z,92160.22
2023-04-19T05:54:06.397Z,92163.91
2023-04-19T05:56:52.316Z,92164.97
2023-04-19T05:59:38.295Z,92170.19
2023-04-19T06:02:24.303Z,92169.63
2023-04-19T06:05:11.247Z,92166.25
2023-04-19T06:08:02.676Z,92166.41
2023-04-19T06:10:54.466Z,92165.53
2023-04-19T06:13:43.088Z,92167.63
2023-04-19T06:16:28.900Z,92174.19
2023-04-19T06:19:14.930Z,92169.50
2023-04-19T06:22:00.861Z,92182.13
2023-04-19T06:24:48.937Z,92176.47
2023-04-19T06:27:34.816Z,92176.56
2023-04-19T06:30:20.815Z,92174.69
2023-04-19T06:33:06.683Z,92182.56
2023-04-19T06:35:52.776Z,92183.75
2023-04-19T06:38:38.640Z,92189.41
2023-04-19T06:41:24.615Z,92186.09
2023-04-19T06:44:10.776Z,92182.81
2023-04-19T06:46:56.856Z,92178.38
2023-04-19T06:49:42.740Z,92180.34
2023-04-19T06:52:28.640Z,92185.69
2023-04-19T06:55:14.514Z,92184.16
2023-04-19T06:58:00.573Z,92182.31
2023-04-19T07:00:46.323Z,92182.44
2023-04-19T07:03:32.417Z,92189.69
2023-04-19T07:06:18.657Z,92183.19
2023-04-19T07:09:04.598Z,92184.34
2023-04-19T07:11:50.565Z,92191.00
2023-04-19T07:14:36.507Z,92188.25
2023-04-19T07:17:22.310Z,92180.19
2023-04-19T07:20:08.419Z,92185.53
2023-04-19T07:22:54.352Z,92184.13
2023-04-19T07:25:40.318Z,92182.00
2023-04-19T07:28:26.114Z,92178.97
2023-04-19T07:31:11.905Z,92186.72
2023-04-19T07:33:57.724Z,92181.00
2023-04-19T07:36:43.574Z,92182.44
2023-04-19T07:39:29.575Z,92185.34
2023-04-19T07:42:15.598Z,92186.59
2023-04-19T07:45:01.396Z,92189.66
2023-04-19T07:47:47.531Z,92187.63
2023-04-19T07:50:33.332Z,92191.13
2023-04-19T07:53:19.325Z,92191.06
2023-04-19T07:56:05.413Z,92184.63
2023-04-19T07:59:04.513Z,92183.41
2023-04-19T08:01:54.251Z,92185.38
2023-04-19T08:04:40.747Z,92190.94
2023-04-19T08:07:26.830Z,92192.59
2023-04-19T08:10:12.820Z,92182.72
2023-04-19T08:13:05.985Z,92182.44
2023-04-19T08:16:27.209Z,92180.53
2023-04-19T08:18:59.034Z,92181.13
2023-04-19T08:21:44.866Z,92192.31
2023-04-19T08:24:30.732Z,92182.88
2023-04-19T08:27:16.699Z,92187.38
2023-04-19T08:30:02.531Z,92183.16
2023-04-19T08:32:48.530Z,92183.56
2023-04-19T08:35:34.361Z,92187.63
2023-04-19T08:38:20.390Z,92188.66
2023-04-19T08:41:06.377Z,92186.88
2023-04-19T08:43:52.229Z,92184.84
2023-04-19T08:46:38.378Z,92185.09
2023-04-19T08:49:24.667Z,92183.31
2023-04-19T08:52:10.628Z,92189.69
2023-04-19T08:54:56.574Z,92178.91
2023-04-19T08:57:42.336Z,92182.97
2023-04-19T09:00:28.312Z,92178.59
2023-04-19T09:03:14.460Z,92172.75
2023-04-19T09:06:00.977Z,92180.03
2023-04-19T09:08:47.395Z,92180.59
2023-04-19T09:11:33.324Z,92179.06
2023-04-19T09:14:19.254Z,92173.53
2023-04-19T09:17:05.117Z,92182.81
2023-04-19T09:19:51.133Z,92181.50
2023-04-19T09:22:36.994Z,92170.66
2023-04-19T09:25:43.746Z,92163.44
2023-04-19T09:28:29.153Z,92172.69
2023-04-19T09:31:35.412Z,92165.66
2023-04-19T09:34:21.174Z,92164.06
2023-04-19T09:37:13.449Z,92158.16
2023-04-19T09:40:05.867Z,92158.47
2023-04-19T09:45:40.746Z,92155.84
2023-04-19T09:48:26.498Z,92147.41
2023-04-19T09:51:14.545Z,92152.25
2023-04-19T09:54:00.979Z,92153.06
2023-04-19T09:56:46.943Z,92148.09
2023-04-19T09:59:32.839Z,92146.19
2023-04-19T10:02:19.034Z,92147.53
2023-04-19T10:05:19.734Z,92141.16
2023-04-19T10:08:07.244Z,92137.88
2023-04-19T10:10:53.132Z,92133.88
2023-04-19T10:13:39.003Z,92128.06
2023-04-19T10:16:25.029Z,92134.63
2023-04-19T10:19:10.833Z,92136.69
2023-04-19T10:21:56.709Z,92132.66
2023-04-19T10:24:44.507Z,92132.41
2023-04-19T10:27:30.954Z,92123.91
2023-04-19T10:30:16.939Z,92120.84
2023-04-19T10:33:02.889Z,92125.09
2023-04-19T10:35:49.141Z,92122.31
2023-04-19T10:38:35.045Z,92116.94
2023-04-19T10:41:20.971Z,92114.50
2023-04-19T10:44:06.963Z,92111.28
2023-04-19T10:46:52.994Z,92120.88
2023-04-19T10:49:38.992Z,92105.16
2023-04-19T10:52:24.945Z,92106.47
2023-04-19T10:55:10.843Z,92106.41
2023-04-19T10:57:56.751Z,92104.75
2023-04-19T11:00:42.647Z,92095.75
2023-04-19T11:03:29.045Z,92099.63
2023-04-19T11:06:15.506Z,92092.91
2023-04-19T11:09:01.746Z,92081.66
2023-04-19T11:11:47.625Z,92083.41
2023-04-19T11:14:33.659Z,92081.41
2023-04-19T11:17:19.605Z,92073.38
2023-04-19T11:20:05.512Z,92070.94
2023-04-19T11:22:51.635Z,92077.25
2023-04-19T11:25:37.360Z,92069.34
2023-04-19T11:28:23.365Z,92060.81
2023-04-19T11:31:09.452Z,92057.69
2023-04-19T11:33:55.330Z,92054.50
2023-04-19T11:36:41.141Z,92049.13
2023-04-19T11:39:27.102Z,92047.69
2023-04-19T11:42:12.950Z,92044.47
2023-04-19T11:45:00.808Z,92038.19
2023-04-19T11:47:46.881Z,92041.91
2023-04-19T11:50:33.023Z,92030.94
2023-04-19T11:53:19.082Z,92030.31
2023-04-19T11:56:05.262Z,92024.47
2023-04-19T11:58:51.695Z,92018.63
2023-04-19T12:01:37.636Z,92017.56
2023-04-19T12:04:23.664Z,92012.63
2023-04-19T12:07:10.046Z,92011.50
2023-04-19T12:09:56.056Z,92009.25
2023-04-19T12:12:42.221Z,92013.50
2023-04-19T12:15:28.829Z,92016.00
2023-04-19T12:18:15.294Z,92012.97
2023-04-19T12:21:01.646Z,92011.00
2023-04-19T12:23:47.689Z,92002.41
2023-04-19T12:26:33.602Z,91994.69
2023-04-19T12:29:19.795Z,91994.84
2023-04-19T12:32:05.824Z,91994.31
2023-04-19T12:34:51.776Z,91991.38
2023-04-19T12:37:37.810Z,91991.97
2023-04-19T12:40:23.813Z,91982.69
2023-04-19T12:43:09.643Z,91984.19
2023-04-19T12:45:55.672Z,91994.63
2023-04-19T12:48:41.507Z,91984.41
2023-04-19T12:51:27.334Z,91975.69
2023-04-19T12:54:13.425Z,91970.69
2023-04-19T12:56:59.763Z,91954.81
2023-04-19T12:59:46.608Z,91956.72
2023-04-19T13:02:32.682Z,91951.91
2023-04-19T13:05:18.836Z,91945.16
2023-04-19T13:08:05.151Z,91945.16
2023-04-19T13:10:51.263Z,91947.00
2023-04-19T13:13:37.260Z,91934.22
2023-04-19T13:16:23.309Z,91936.84
2023-04-19T13:19:09.230Z,91926.63
2023-04-19T13:21:55.160Z,91934.59
2023-04-19T13:24:41.135Z,91926.66
2023-04-19T13:27:27.011Z,91911.94
2023-04-19T13:30:13.055Z,91919.09
2023-04-19T13:32:59.337Z,91913.78
2023-04-19T13:35:45.355Z,91911.94
2023-04-19T13:38:31.396Z,91908.84
2023-04-19T13:41:17.342Z,91907.41
2023-04-19T13:44:03.349Z,91903.28
2023-04-19T13:46:49.418Z,91895.31
2023-04-19T13:49:35.373Z,91888.41
2023-04-19T13:52:21.443Z,91883.16
2023-04-19T13:55:07.399Z,91880.16
2023-04-19T13:57:53.240Z,91876.44
2023-04-19T14:00:39.222Z,91868.34
2023-04-19T14:03:25.407Z,91867.03
2023-04-19T14:08:54.115Z,91857.34
2023-04-19T14:11:40.053Z,91853.41
2023-04-19T14:14:25.982Z,91851.84
2023-04-19T14:17:11.920Z,91852.03
2023-04-19T14:19:57.885Z,91847.66
2023-04-19T14:22:43.819Z,91842.34
2023-04-19T14:25:29.771Z,91834.31
2023-04-19T14:28:15.644Z,91834.91
2023-04-19T14:31:01.444Z,91829.53
2023-04-19T14:33:47.436Z,91827.00
2023-04-19T14:36:33.480Z,91824.06
2023-04-19T14:39:20.381Z,91827.63
2023-04-19T14:42:06.184Z,91822.97
2023-04-19T14:44:52.285Z,91817.88
2023-04-19T14:47:38.361Z,91818.28
2023-04-19T14:50:24.568Z,91807.78
2023-04-19T14:53:10.392Z,91802.09
2023-04-19T14:55:56.177Z,91798.22
2023-04-19T14:58:42.216Z,91793.78
2023-04-19T15:01:28.054Z,91792.53
2023-04-19T15:04:14.130Z,91793.09
2023-04-19T15:07:00.393Z,91793.31
2023-04-19T15:09:46.268Z,91789.19
2023-04-19T15:12:32.322Z,91786.44
2023-04-19T15:15:18.145Z,91784.03
2023-04-19T15:18:04.001Z,91781.03
2023-04-19T15:20:49.946Z,91781.09
2023-04-19T15:23:35.853Z,91779.34
2023-04-19T15:26:21.680Z,91779.84
2023-04-19T15:29:07.558Z,91775.47
2023-04-19T15:31:53.419Z,91776.00
2023-04-19T15:34:39.754Z,91769.31
2023-04-19T15:37:25.597Z,91781.84
2023-04-19T15:40:11.309Z,91779.88
2023-04-19T15:42:57.287Z,91781.59
2023-04-19T15:45:45.112Z,91779.03
2023-04-19T15:48:31.011Z,91776.06
2023-04-19T15:51:17.037Z,91772.66
2023-04-19T15:54:02.866Z,91773.16
2023-04-19T15:56:48.632Z,91766.38
2023-04-19T15:59:34.405Z,91764.78
2023-04-19T16:02:20.488Z,91776.50
2023-04-19T16:05:06.503Z,91778.69
2023-04-19T16:07:52.365Z,91775.78
2023-04-19T16:10:38.263Z,91785.50
2023-04-19T16:13:24.249Z,91782.09
2023-04-19T16:16:10.053Z,91779.47
2023-04-19T16:18:56.015Z,91786.59
2023-04-19T16:21:43.751Z,91782.91
2023-04-19T16:24:29.696Z,91790.50
2023-04-19T16:27:15.700Z,91790.50
2023-04-19T16:30:01.560Z,91784.41
2023-04-19T16:32:47.622Z,91792.63
2023-04-19T16:35:33.599Z,91780.97
2023-04-19T16:38:19.426Z,91777.97
2023-04-19T16:41:05.146Z,91783.59
2023-04-19T16:43:51.078Z,91780.81
2023-04-19T16:46:36.943Z,91769.63
2023-04-19T16:49:22.951Z,91770.84
2023-04-19T16:52:08.771Z,91772.69
2023-04-19T16:54:54.800Z,91771.53
2023-04-19T16:57:40.791Z,91773.50
2023-04-19T17:00:26.821Z,91760.66
2023-04-19T17:03:12.918Z,91762.19
2023-04-19T17:05:59.131Z,91764.84
2023-04-19T17:08:45.023Z,91767.88
2023-04-19T17:11:30.940Z,91765.19
2023-04-19T17:14:16.982Z,91761.78
2023-04-19T17:17:03.061Z,91765.88
2023-04-19T17:19:48.975Z,91762.84
2023-04-19T17:22:34.812Z,91757.69
2023-04-19T17:25:22.238Z,91761.81
2023-04-19T17:28:08.614Z,91768.56
2023-04-19T17:30:54.444Z,91769.31
2023-04-19T17:33:40.390Z,91769.13
2023-04-19T17:36:26.261Z,91760.22
2023-04-19T17:39:12.082Z,91755.81
2023-04-19T17:41:57.851Z,91760.22
2023-04-19T17:44:43.708Z,91759.22
2023-04-19T17:47:29.620Z,91763.16
2023-04-19T17:50:15.407Z,91762.00
2023-04-19T17:53:01.186Z,91754.34
2023-04-19T17:55:47.164Z,91764.38
2023-04-19T17:58:32.992Z,91766.69
2023-04-19T18:01:18.813Z,91761.44
2023-04-19T18:04:05.136Z,91759.00
2023-04-19T18:06:51.114Z,91766.88
2023-04-19T18:09:37.139Z,91771.72
2023-04-19T18:12:22.957Z,91755.75
2023-04-19T18:15:08.776Z,91763.28
2023-04-19T18:17:54.675Z,91766.06
2023-04-19T18:20:40.333Z,91772.28
2023-04-19T18:23:28.270Z,91765.00
2023-04-19T18:26:14.288Z,91770.84
2023-04-19T18:29:00.152Z,91771.50
2023-04-19T18:31:46.049Z,91778.56
2023-04-19T18:34:31.944Z,91774.50
2023-04-19T18:37:17.749Z,91772.81
2023-04-19T18:40:03.706Z,91773.88
2023-04-19T18:42:49.587Z,91776.78
2023-04-19T18:45:35.767Z,91782.47
2023-04-19T18:48:21.823Z,91777.69
2023-04-19T18:51:07.613Z,91782.25
2023-04-19T18:53:53.442Z,91782.00
2023-04-19T18:57:18.404Z,91787.25
2023-04-19T18:59:45.117Z,91778.16
2023-04-19T19:02:31.025Z,91786.34
2023-04-19T19:05:17.411Z,91781.22
2023-04-19T19:08:03.669Z,91783.91
2023-04-19T19:11:14.337Z,91784.19
2023-04-19T19:13:56.196Z,91781.41
2023-04-19T19:16:51.268Z,91796.50
2023-04-19T19:19:37.802Z,91794.56
2023-04-19T19:22:28.263Z,91785.75
2023-04-19T19:25:14.829Z,91789.38
2023-04-19T19:30:49.851Z,91787.34
2023-04-19T19:33:38.908Z,91778.34
2023-04-19T19:36:25.938Z,91785.00
2023-04-19T19:39:11.752Z,91787.81
2023-04-19T19:42:06.063Z,91784.50
2023-04-19T19:44:52.619Z,91787.56
2023-04-19T19:47:44.554Z,91782.81
2023-04-19T19:53:20.609Z,91781.47
2023-04-19T19:56:13.054Z,91781.34
2023-04-19T19:59:04.904Z,91779.53
2023-04-19T20:01:50.784Z,91774.72
2023-04-19T20:04:36.800Z,91770.41
2023-04-19T20:07:33.273Z,91771.69
2023-04-19T20:10:28.013Z,91771.53
2023-04-19T20:13:13.973Z,91766.56
2023-04-19T20:15:59.817Z,91768.25
2023-04-19T20:18:45.664Z,91760.16
2023-04-19T20:21:31.440Z,91764.25
2023-04-19T20:24:17.237Z,91762.06
2023-04-19T20:27:03.136Z,91755.47
2023-04-19T20:29:48.842Z,91755.47
2023-04-19T20:32:34.739Z,91755.56
2023-04-19T20:35:20.615Z,91754.66
2023-04-19T20:38:06.496Z,91758.47
2023-04-19T20:40:52.379Z,91756.66
2023-04-19T20:43:38.183Z,91753.78
2023-04-19T20:46:24.223Z,91753.53
2023-04-19T20:49:10.449Z,91744.97
2023-04-19T20:51:56.396Z,91744.81
2023-04-19T20:54:42.308Z,91735.66
2023-04-19T20:57:28.131Z,91736.56
2023-04-19T21:00:14.075Z,91740.63
2023-04-19T21:03:00.027Z,91731.22
2023-04-19T21:05:45.909Z,91731.09
2023-04-19T21:08:31.912Z,91734.44
2023-04-19T21:11:17.966Z,91732.91
2023-04-19T21:14:03.869Z,91728.38
2023-04-19T21:16:49.657Z,91721.56
2023-04-19T21:19:35.427Z,91721.28
2023-04-19T21:22:21.315Z,91717.84
2023-04-19T21:25:07.292Z,91719.75
2023-04-19T21:27:53.167Z,91711.72
2023-04-19T21:30:39.060Z,91706.06
2023-04-19T21:33:24.900Z,91706.88
2023-04-19T21:36:10.907Z,91710.81
2023-04-19T21:38:56.887Z,91709.81
2023-04-19T21:41:42.779Z,91706.78
2023-04-19T21:44:28.457Z,91716.03
2023-04-19T21:47:14.392Z,91697.31
2023-04-19T21:50:00.282Z,91698.34
2023-04-19T21:52:46.343Z,91695.72
2023-04-19T21:55:34.368Z,91704.53
2023-04-19T21:58:20.255Z,91698.91
2023-04-19T22:01:06.025Z,91694.75
2023-04-19T22:03:52.193Z,91695.47
2023-04-19T22:06:38.248Z,91686.69
2023-04-19T22:09:24.005Z,91691.59
2023-04-19T22:12:09.848Z,91694.09
2023-04-19T22:14:55.812Z,91683.31
2023-04-19T22:17:41.906Z,91679.72
2023-04-19T22:20:27.986Z,91682.16
2023-04-19T22:23:14.055Z,91683.84
2023-04-19T22:26:00.108Z,91674.53
2023-04-19T22:28:46.003Z,91671.50
2023-04-19T22:31:32.054Z,91669.28
2023-04-19T22:34:17.770Z,91669.72
2023-04-19T22:37:03.669Z,91665.84
2023-04-19T22:39:49.535Z,91666.53
2023-04-19T22:42:35.386Z,91667.34
2023-04-19T22:45:21.305Z,91659.19
2023-04-19T22:48:07.124Z,91659.91
2023-04-19T22:50:53.112Z,91652.66
2023-04-19T22:53:39.066Z,91662.25
2023-04-19T22:56:24.808Z,91649.84
2023-04-19T22:59:10.770Z,91661.13
2023-04-19T23:01:56.814Z,91650.22
2023-04-19T23:04:43.077Z,91652.97
2023-04-19T23:07:29.021Z,91644.56
2023-04-19T23:10:14.929Z,91655.38
2023-04-19T23:13:00.976Z,91648.19
2023-04-19T23:15:46.946Z,91651.31
2023-04-19T23:18:32.734Z,91648.56
2023-04-19T23:21:18.559Z,91642.69
2023-04-19T23:24:04.361Z,91642.94
2023-04-19T23:26:50.122Z,91642.03
2023-04-19T23:29:36.066Z,91645.19
2023-04-19T23:32:22.045Z,91644.22
2023-04-19T23:35:08.032Z,91642.88
2023-04-19T23:37:54.056Z,91638.00
2023-04-19T23:40:39.826Z,91625.53
2023-04-19T23:43:25.699Z,91623.69
2023-04-19T23:46:11.540Z,91620.00
2023-04-19T23:48:57.455Z,91625.88
2023-04-19T23:51:43.407Z,91627.41
2023-04-19T23:54:29.225Z,91625.09
2023-04-19T23:57:15.310Z,91614.44
